sensor_id;sensor_type;location;lat;lon;timestamp;temperature;humidity
18141;DHT22;9196;49.194;12.526;2023-11-18T00:00:40;1.70;99.90
18141;DHT22;9196;49.194;12.526;2023-11-18T00:03:09;1.70;99.90
18141;DHT22;9196;49.194;12.526;2023-11-18T00:05:36;1.60;99.90
18141;DHT22;9196;49.194;12.526;2023-11-18T00:08:03;1.50;99.90
18141;DHT22;9196;49.194;12.526;2023-11-18T00:10:30;1.50;99.90
18141;DHT22;9196;49.194;12.526;2023-11-18T00:12:56;1.50;99.90
18141;DHT22;9196;49.194;12.526;2023-11-18T00:15:23;1.40;99.90
18141;DHT22;9196;49.194;12.526;2023-11-18T00:17:51;1.40;99.90
18141;DHT22;9196;49.194;12.526;2023-11-18T00:20:19;1.40;99.90
18141;DHT22;9196;49.194;12.526;2023-11-18T00:22:46;1.50;99.90
18141;DHT22;9196;49.194;12.526;2023-11-18T00:25:13;1.40;99.90
18141;DHT22;9196;49.194;12.526;2023-11-18T00:27:40;1.50;99.90
18141;DHT22;9196;49.194;12.526;2023-11-18T00:30:09;1.50;99.90
18141;DHT22;9196;49.194;12.526;2023-11-18T00:32:36;1.50;99.90
18141;DHT22;9196;49.194;12.526;2023-11-18T00:35:04;1.50;99.90
18141;DHT22;9196;49.194;12.526;2023-11-18T00:37:33;1.50;99.90
18141;DHT22;9196;49.194;12.526;2023-11-18T00:40:00;1.40;99.90
18141;DHT22;9196;49.194;12.526;2023-11-18T00:42:27;1.40;99.90
18141;DHT22;9196;49.194;12.526;2023-11-18T00:44:54;1.40;99.90
18141;DHT22;9196;49.194;12.526;2023-11-18T00:47:21;1.50;99.90
18141;DHT22;9196;49.194;12.526;2023-11-18T00:49:49;1.40;99.90
18141;DHT22;9196;49.194;12.526;2023-11-18T00:52:17;1.40;99.90
18141;DHT22;9196;49.194;12.526;2023-11-18T00:54:46;1.40;99.90
18141;DHT22;9196;49.194;12.526;2023-11-18T00:57:13;1.40;99.90
18141;DHT22;9196;49.194;12.526;2023-11-18T00:59:42;1.40;99.90
18141;DHT22;9196;49.194;12.526;2023-11-18T01:02:09;1.30;99.90
18141;DHT22;9196;49.194;12.526;2023-11-18T01:04:36;1.40;99.90
18141;DHT22;9196;49.194;12.526;2023-11-18T01:07:04;1.30;99.90
18141;DHT22;9196;49.194;12.526;2023-11-18T01:09:31;1.20;99.90
18141;DHT22;9196;49.194;12.526;2023-11-18T01:12:04;1.20;99.90
18141;DHT22;9196;49.194;12.526;2023-11-18T01:14:33;1.20;99.90
18141;DHT22;9196;49.194;12.526;2023-11-18T01:17:00;1.30;99.90
18141;DHT22;9196;49.194;12.526;2023-11-18T01:19:27;1.20;99.90
18141;DHT22;9196;49.194;12.526;2023-11-18T01:21:54;1.20;99.90
18141;DHT22;9196;49.194;12.526;2023-11-18T01:24:21;1.20;99.90
18141;DHT22;9196;49.194;12.526;2023-11-18T01:26:48;1.20;99.90
18141;DHT22;9196;49.194;12.526;2023-11-18T01:29:16;1.20;99.90
18141;DHT22;9196;49.194;12.526;2023-11-18T01:31:43;1.30;99.90
18141;DHT22;9196;49.194;12.526;2023-11-18T01:34:10;1.20;99.90
18141;DHT22;9196;49.194;12.526;2023-11-18T01:36:37;1.20;99.90
18141;DHT22;9196;49.194;12.526;2023-11-18T01:39:04;1.20;99.90
18141;DHT22;9196;49.194;12.526;2023-11-18T01:41:32;1.30;99.90
18141;DHT22;9196;49.194;12.526;2023-11-18T01:43:59;1.40;99.90
18141;DHT22;9196;49.194;12.526;2023-11-18T01:46:27;1.30;99.90
18141;DHT22;9196;49.194;12.526;2023-11-18T01:48:55;1.30;99.90
18141;DHT22;9196;49.194;12.526;2023-11-18T01:51:24;1.20;99.90
18141;DHT22;9196;49.194;12.526;2023-11-18T01:53:51;1.20;99.90
18141;DHT22;9196;49.194;12.526;2023-11-18T01:56:18;1.20;99.90
18141;DHT22;9196;49.194;12.526;2023-11-18T01:58:46;1.10;99.90
18141;DHT22;9196;49.194;12.526;2023-11-18T02:01:14;1.10;99.90
18141;DHT22;9196;49.194;12.526;2023-11-18T02:03:45;1.10;99.90
18141;DHT22;9196;49.194;12.526;2023-11-18T02:06:13;1.10;99.90
18141;DHT22;9196;49.194;12.526;2023-11-18T02:08:42;1.10;99.90
18141;DHT22;9196;49.194;12.526;2023-11-18T02:11:16;1.10;99.90
18141;DHT22;9196;49.194;12.526;2023-11-18T02:13:48;1.00;99.90
18141;DHT22;9196;49.194;12.526;2023-11-18T02:16:16;1.10;99.90
18141;DHT22;9196;49.194;12.526;2023-11-18T02:18:47;1.10;99.90
18141;DHT22;9196;49.194;12.526;2023-11-18T02:21:15;0.90;99.90
18141;DHT22;9196;49.194;12.526;2023-11-18T02:23:42;0.80;99.90
18141;DHT22;9196;49.194;12.526;2023-11-18T02:26:10;0.80;99.90
18141;DHT22;9196;49.194;12.526;2023-11-18T02:28:37;0.80;99.90
18141;DHT22;9196;49.194;12.526;2023-11-18T02:31:08;0.80;99.90
18141;DHT22;9196;49.194;12.526;2023-11-18T02:33:43;0.80;99.90
18141;DHT22;9196;49.194;12.526;2023-11-18T02:36:20;0.70;99.90
18141;DHT22;9196;49.194;12.526;2023-11-18T02:38:50;0.80;99.90
18141;DHT22;9196;49.194;12.526;2023-11-18T02:41:19;0.60;99.90
18141;DHT22;9196;49.194;12.526;2023-11-18T02:43:47;0.70;99.90
18141;DHT22;9196;49.194;12.526;2023-11-18T02:46:14;0.70;99.90
18141;DHT22;9196;49.194;12.526;2023-11-18T02:48:42;0.70;99.90
18141;DHT22;9196;49.194;12.526;2023-11-18T02:51:10;0.70;99.90
18141;DHT22;9196;49.194;12.526;2023-11-18T02:53:37;0.60;99.90
18141;DHT22;9196;49.194;12.526;2023-11-18T02:56:07;0.60;99.90
18141;DHT22;9196;49.194;12.526;2023-11-18T02:58:36;0.50;99.90
18141;DHT22;9196;49.194;12.526;2023-11-18T03:01:03;0.50;99.90
18141;DHT22;9196;49.194;12.526;2023-11-18T03:03:30;0.60;99.90
18141;DHT22;9196;49.194;12.526;2023-11-18T03:05:57;0.60;99.90
18141;DHT22;9196;49.194;12.526;2023-11-18T03:08:25;0.60;99.90
18141;DHT22;9196;49.194;12.526;2023-11-18T03:10:54;0.40;99.90
18141;DHT22;9196;49.194;12.526;2023-11-18T03:13:21;0.30;99.90
18141;DHT22;9196;49.194;12.526;2023-11-18T03:15:50;0.20;99.90
18141;DHT22;9196;49.194;12.526;2023-11-18T03:18:17;0.20;99.90
18141;DHT22;9196;49.194;12.526;2023-11-18T03:20:44;0.30;99.90
18141;DHT22;9196;49.194;12.526;2023-11-18T03:23:11;0.50;99.90
18141;DHT22;9196;49.194;12.526;2023-11-18T03:25:38;0.50;99.90
18141;DHT22;9196;49.194;12.526;2023-11-18T03:28:04;0.40;99.90
18141;DHT22;9196;49.194;12.526;2023-11-18T03:30:33;0.50;99.90
18141;DHT22;9196;49.194;12.526;2023-11-18T03:33:03;0.50;99.90
18141;DHT22;9196;49.194;12.526;2023-11-18T03:35:30;0.50;99.90
18141;DHT22;9196;49.194;12.526;2023-11-18T03:37:58;0.50;99.90
18141;DHT22;9196;49.194;12.526;2023-11-18T03:40:25;0.60;99.90
18141;DHT22;9196;49.194;12.526;2023-11-18T03:42:54;0.60;99.90
18141;DHT22;9196;49.194;12.526;2023-11-18T03:45:22;0.60;99.90
18141;DHT22;9196;49.194;12.526;2023-11-18T03:47:49;0.60;99.90
18141;DHT22;9196;49.194;12.526;2023-11-18T03:50:17;0.50;99.90
18141;DHT22;9196;49.194;12.526;2023-11-18T03:52:44;0.60;99.90
18141;DHT22;9196;49.194;12.526;2023-11-18T03:55:11;0.60;99.90
18141;DHT22;9196;49.194;12.526;2023-11-18T03:57:38;0.60;99.90
18141;DHT22;9196;49.194;12.526;2023-11-18T04:00:05;0.50;99.90
18141;DHT22;9196;49.194;12.526;2023-11-18T04:02:32;0.60;99.90
18141;DHT22;9196;49.194;12.526;2023-11-18T04:05:01;0.60;99.90
18141;DHT22;9196;49.194;12.526;2023-11-18T04:07:30;0.50;99.90
18141;DHT22;9196;49.194;12.526;2023-11-18T04:09:57;0.50;99.90
18141;DHT22;9196;49.194;12.526;2023-11-18T04:12:25;0.50;99.90
18141;DHT22;9196;49.194;12.526;2023-11-18T04:14:52;0.50;99.90
18141;DHT22;9196;49.194;12.526;2023-11-18T04:17:19;0.50;99.90
18141;DHT22;9196;49.194;12.526;2023-11-18T04:19:46;0.60;99.90
18141;DHT22;9196;49.194;12.526;2023-11-18T04:22:13;0.50;99.90
18141;DHT22;9196;49.194;12.526;2023-11-18T04:24:41;0.50;99.90
18141;DHT22;9196;49.194;12.526;2023-11-18T04:27:10;0.50;99.90
18141;DHT22;9196;49.194;12.526;2023-11-18T04:29:37;0.60;99.90
18141;DHT22;9196;49.194;12.526;2023-11-18T04:32:06;0.70;99.90
18141;DHT22;9196;49.194;12.526;2023-11-18T04:34:35;0.70;99.90
18141;DHT22;9196;49.194;12.526;2023-11-18T04:37:02;0.60;99.90
18141;DHT22;9196;49.194;12.526;2023-11-18T04:39:31;0.40;99.90
18141;DHT22;9196;49.194;12.526;2023-11-18T04:41:59;0.20;99.90
18141;DHT22;9196;49.194;12.526;2023-11-18T04:44:27;0.00;99.90
18141;DHT22;9196;49.194;12.526;2023-11-18T04:46:56;-0.10;99.90
18141;DHT22;9196;49.194;12.526;2023-11-18T04:49:23;0.00;99.90
18141;DHT22;9196;49.194;12.526;2023-11-18T04:51:50;0.10;99.90
18141;DHT22;9196;49.194;12.526;2023-11-18T04:54:17;0.20;99.90
18141;DHT22;9196;49.194;12.526;2023-11-18T04:56:45;0.20;99.90
18141;DHT22;9196;49.194;12.526;2023-11-18T04:59:13;0.00;99.90
18141;DHT22;9196;49.194;12.526;2023-11-18T05:01:40;-0.10;99.90
18141;DHT22;9196;49.194;12.526;2023-11-18T05:04:07;-0.10;99.90
18141;DHT22;9196;49.194;12.526;2023-11-18T05:06:34;0.00;99.90
18141;DHT22;9196;49.194;12.526;2023-11-18T05:09:01;0.00;99.90
18141;DHT22;9196;49.194;12.526;2023-11-18T05:11:33;0.00;99.90
18141;DHT22;9196;49.194;12.526;2023-11-18T05:14:01;0.10;99.90
18141;DHT22;9196;49.194;12.526;2023-11-18T05:16:30;0.00;99.90
18141;DHT22;9196;49.194;12.526;2023-11-18T05:18:57;0.00;99.90
18141;DHT22;9196;49.194;12.526;2023-11-18T05:21:24;0.10;99.90
18141;DHT22;9196;49.194;12.526;2023-11-18T05:23:51;-0.10;99.90
18141;DHT22;9196;49.194;12.526;2023-11-18T05:26:18;-0.10;99.90
18141;DHT22;9196;49.194;12.526;2023-11-18T05:28:44;-0.10;99.90
18141;DHT22;9196;49.194;12.526;2023-11-18T05:31:11;0.00;99.90
18141;DHT22;9196;49.194;12.526;2023-11-18T05:33:39;0.00;99.90
18141;DHT22;9196;49.194;12.526;2023-11-18T05:36:07;0.10;99.90
18141;DHT22;9196;49.194;12.526;2023-11-18T05:38:36;0.10;99.90
18141;DHT22;9196;49.194;12.526;2023-11-18T05:41:04;0.10;99.90
18141;DHT22;9196;49.194;12.526;2023-11-18T05:43:33;0.10;99.90
18141;DHT22;9196;49.194;12.526;2023-11-18T05:46:05;0.00;99.90
18141;DHT22;9196;49.194;12.526;2023-11-18T05:48:47;-0.20;99.90
18141;DHT22;9196;49.194;12.526;2023-11-18T05:51:14;-0.30;99.90
18141;DHT22;9196;49.194;12.526;2023-11-18T05:53:41;-0.30;99.90
18141;DHT22;9196;49.194;12.526;2023-11-18T05:56:10;-0.40;99.90
18141;DHT22;9196;49.194;12.526;2023-11-18T05:58:37;-0.40;99.90
18141;DHT22;9196;49.194;12.526;2023-11-18T06:01:05;-0.30;99.90
18141;DHT22;9196;49.194;12.526;2023-11-18T06:03:34;-0.30;99.90
18141;DHT22;9196;49.194;12.526;2023-11-18T06:06:06;-0.10;99.90
18141;DHT22;9196;49.194;12.526;2023-11-18T06:08:33;0.00;99.90
18141;DHT22;9196;49.194;12.526;2023-11-18T06:11:00;0.00;99.90
18141;DHT22;9196;49.194;12.526;2023-11-18T06:13:39;0.00;99.90
18141;DHT22;9196;49.194;12.526;2023-11-18T06:16:09;0.00;99.90
18141;DHT22;9196;49.194;12.526;2023-11-18T06:18:40;0.10;99.90
18141;DHT22;9196;49.194;12.526;2023-11-18T06:21:11;0.00;99.90
18141;DHT22;9196;49.194;12.526;2023-11-18T06:23:37;-0.10;99.90
18141;DHT22;9196;49.194;12.526;2023-11-18T06:26:05;-0.30;99.90
18141;DHT22;9196;49.194;12.526;2023-11-18T06:28:32;-0.50;99.90
18141;DHT22;9196;49.194;12.526;2023-11-18T06:31:00;-0.50;99.90
18141;DHT22;9196;49.194;12.526;2023-11-18T06:33:27;-0.60;99.90
18141;DHT22;9196;49.194;12.526;2023-11-18T06:35:54;-0.60;99.90
18141;DHT22;9196;49.194;12.526;2023-11-18T06:38:23;-0.50;99.90
18141;DHT22;9196;49.194;12.526;2023-11-18T06:40:50;-0.40;99.90
18141;DHT22;9196;49.194;12.526;2023-11-18T06:43:18;-0.40;99.90
18141;DHT22;9196;49.194;12.526;2023-11-18T06:45:46;-0.30;99.90
18141;DHT22;9196;49.194;12.526;2023-11-18T06:48:14;-0.30;99.90
18141;DHT22;9196;49.194;12.526;2023-11-18T06:50:45;-0.20;99.90
18141;DHT22;9196;49.194;12.526;2023-11-18T06:53:13;-0.20;99.90
18141;DHT22;9196;49.194;12.526;2023-11-18T06:55:42;-0.20;99.90
18141;DHT22;9196;49.194;12.526;2023-11-18T06:58:09;-0.20;99.90
18141;DHT22;9196;49.194;12.526;2023-11-18T07:00:36;-0.20;99.90
18141;DHT22;9196;49.194;12.526;2023-11-18T07:03:04;-0.20;99.90
18141;DHT22;9196;49.194;12.526;2023-11-18T07:05:31;-0.10;99.90
18141;DHT22;9196;49.194;12.526;2023-11-18T07:07:58;-0.10;99.90
18141;DHT22;9196;49.194;12.526;2023-11-18T07:10:24;0.00;99.90
18141;DHT22;9196;49.194;12.526;2023-11-18T07:12:54;0.00;99.90
18141;DHT22;9196;49.194;12.526;2023-11-18T07:15:21;0.00;99.90
18141;DHT22;9196;49.194;12.526;2023-11-18T07:17:48;0.00;99.90
18141;DHT22;9196;49.194;12.526;2023-11-18T07:20:15;0.00;99.90
18141;DHT22;9196;49.194;12.526;2023-11-18T07:22:42;0.10;99.90
18141;DHT22;9196;49.194;12.526;2023-11-18T07:25:09;0.10;99.90
18141;DHT22;9196;49.194;12.526;2023-11-18T07:27:40;0.10;99.90
18141;DHT22;9196;49.194;12.526;2023-11-18T07:30:09;0.10;99.90
18141;DHT22;9196;49.194;12.526;2023-11-18T07:32:36;0.10;99.90
18141;DHT22;9196;49.194;12.526;2023-11-18T07:35:04;0.00;99.90
18141;DHT22;9196;49.194;12.526;2023-11-18T07:37:34;0.00;99.90
18141;DHT22;9196;49.194;12.526;2023-11-18T07:40:03;0.00;99.90
18141;DHT22;9196;49.194;12.526;2023-11-18T07:42:31;0.00;99.90
18141;DHT22;9196;49.194;12.526;2023-11-18T07:44:59;0.10;99.90
18141;DHT22;9196;49.194;12.526;2023-11-18T07:47:30;0.20;99.90
18141;DHT22;9196;49.194;12.526;2023-11-18T07:49:57;0.50;99.90
18141;DHT22;9196;49.194;12.526;2023-11-18T07:52:25;0.70;99.90
18141;DHT22;9196;49.194;12.526;2023-11-18T07:54:53;0.80;99.90
18141;DHT22;9196;49.194;12.526;2023-11-18T07:57:20;1.10;99.90
18141;DHT22;9196;49.194;12.526;2023-11-18T07:59:49;1.20;99.90
18141;DHT22;9196;49.194;12.526;2023-11-18T08:02:16;1.40;99.90
18141;DHT22;9196;49.194;12.526;2023-11-18T08:04:45;1.60;99.90
18141;DHT22;9196;49.194;12.526;2023-11-18T08:07:12;1.60;99.90
18141;DHT22;9196;49.194;12.526;2023-11-18T08:09:39;1.50;99.90
18141;DHT22;9196;49.194;12.526;2023-11-18T08:12:08;1.50;99.90
18141;DHT22;9196;49.194;12.526;2023-11-18T08:14:36;1.60;99.90
18141;DHT22;9196;49.194;12.526;2023-11-18T08:17:03;1.80;99.90
18141;DHT22;9196;49.194;12.526;2023-11-18T08:19:31;1.80;99.90
18141;DHT22;9196;49.194;12.526;2023-11-18T08:22:01;1.90;99.90
18141;DHT22;9196;49.194;12.526;2023-11-18T08:24:29;1.90;99.90
18141;DHT22;9196;49.194;12.526;2023-11-18T08:26:58;1.80;99.90
18141;DHT22;9196;49.194;12.526;2023-11-18T08:29:26;1.30;99.90
18141;DHT22;9196;49.194;12.526;2023-11-18T08:31:56;1.20;99.90
18141;DHT22;9196;49.194;12.526;2023-11-18T08:34:23;1.20;99.90
18141;DHT22;9196;49.194;12.526;2023-11-18T08:36:51;1.30;99.90
18141;DHT22;9196;49.194;12.526;2023-11-18T08:39:19;1.30;99.90
18141;DHT22;9196;49.194;12.526;2023-11-18T08:41:51;1.30;99.90
18141;DHT22;9196;49.194;12.526;2023-11-18T08:44:18;1.30;99.90
18141;DHT22;9196;49.194;12.526;2023-11-18T08:46:44;1.30;99.90
18141;DHT22;9196;49.194;12.526;2023-11-18T08:49:12;1.40;99.90
18141;DHT22;9196;49.194;12.526;2023-11-18T08:51:39;1.40;99.90
18141;DHT22;9196;49.194;12.526;2023-11-18T08:54:07;1.40;99.90
18141;DHT22;9196;49.194;12.526;2023-11-18T08:56:49;1.50;99.90
18141;DHT22;9196;49.194;12.526;2023-11-18T08:59:18;1.60;99.90
18141;DHT22;9196;49.194;12.526;2023-11-18T09:01:50;1.50;99.90
18141;DHT22;9196;49.194;12.526;2023-11-18T09:04:21;1.50;99.90
18141;DHT22;9196;49.194;12.526;2023-11-18T09:06:49;1.60;99.90
18141;DHT22;9196;49.194;12.526;2023-11-18T09:09:17;1.60;99.90
18141;DHT22;9196;49.194;12.526;2023-11-18T09:11:59;1.50;99.90
18141;DHT22;9196;49.194;12.526;2023-11-18T09:14:28;1.50;99.90
18141;DHT22;9196;49.194;12.526;2023-11-18T09:16:56;1.60;99.90
18141;DHT22;9196;49.194;12.526;2023-11-18T09:19:24;1.60;99.90
18141;DHT22;9196;49.194;12.526;2023-11-18T09:21:51;1.70;99.90
18141;DHT22;9196;49.194;12.526;2023-11-18T09:24:20;1.80;99.90
18141;DHT22;9196;49.194;12.526;2023-11-18T09:26:50;1.80;99.90
18141;DHT22;9196;49.194;12.526;2023-11-18T09:29:18;1.90;99.90
18141;DHT22;9196;49.194;12.526;2023-11-18T09:31:49;1.70;99.90
18141;DHT22;9196;49.194;12.526;2023-11-18T09:34:18;1.90;99.90
18141;DHT22;9196;49.194;12.526;2023-11-18T09:36:52;2.00;99.90
18141;DHT22;9196;49.194;12.526;2023-11-18T09:39:19;1.80;99.90
18141;DHT22;9196;49.194;12.526;2023-11-18T09:42:04;2.00;99.90
18141;DHT22;9196;49.194;12.526;2023-11-18T09:44:36;2.30;99.90
18141;DHT22;9196;49.194;12.526;2023-11-18T09:47:05;2.60;99.90
18141;DHT22;9196;49.194;12.526;2023-11-18T09:49:40;2.90;99.90
18141;DHT22;9196;49.194;12.526;2023-11-18T09:52:07;3.10;99.90
18141;DHT22;9196;49.194;12.526;2023-11-18T09:54:39;3.10;99.90
18141;DHT22;9196;49.194;12.526;2023-11-18T09:57:13;3.20;99.90
18141;DHT22;9196;49.194;12.526;2023-11-18T09:59:49;3.10;99.90
18141;DHT22;9196;49.194;12.526;2023-11-18T10:02:20;3.10;99.90
18141;DHT22;9196;49.194;12.526;2023-11-18T10:04:49;3.20;99.90
18141;DHT22;9196;49.194;12.526;2023-11-18T10:07:23;3.40;99.90
18141;DHT22;9196;49.194;12.526;2023-11-18T10:09:54;3.40;99.90
18141;DHT22;9196;49.194;12.526;2023-11-18T10:12:22;3.20;99.90
18141;DHT22;9196;49.194;12.526;2023-11-18T10:14:51;3.10;99.90
18141;DHT22;9196;49.194;12.526;2023-11-18T10:17:18;3.10;99.90
18141;DHT22;9196;49.194;12.526;2023-11-18T10:19:51;3.00;99.90
18141;DHT22;9196;49.194;12.526;2023-11-18T10:22:21;2.90;99.90
18141;DHT22;9196;49.194;12.526;2023-11-18T10:24:49;3.20;99.90
18141;DHT22;9196;49.194;12.526;2023-11-18T10:27:20;3.20;99.90
18141;DHT22;9196;49.194;12.526;2023-11-18T10:29:49;3.10;99.90
18141;DHT22;9196;49.194;12.526;2023-11-18T10:32:19;3.20;99.90
18141;DHT22;9196;49.194;12.526;2023-11-18T10:34:48;3.50;99.90
18141;DHT22;9196;49.194;12.526;2023-11-18T10:37:16;3.60;99.90
18141;DHT22;9196;49.194;12.526;2023-11-18T10:39:47;3.60;99.90
18141;DHT22;9196;49.194;12.526;2023-11-18T10:42:17;3.70;99.90
18141;DHT22;9196;49.194;12.526;2023-11-18T10:44:57;3.80;99.90
18141;DHT22;9196;49.194;12.526;2023-11-18T10:47:26;3.70;99.90
18141;DHT22;9196;49.194;12.526;2023-11-18T10:49:53;3.70;99.90
18141;DHT22;9196;49.194;12.526;2023-11-18T10:52:22;3.80;99.90
18141;DHT22;9196;49.194;12.526;2023-11-18T10:54:51;3.90;99.90
18141;DHT22;9196;49.194;12.526;2023-11-18T10:57:20;3.90;99.90
18141;DHT22;9196;49.194;12.526;2023-11-18T10:59:59;3.80;99.90
18141;DHT22;9196;49.194;12.526;2023-11-18T11:02:30;3.90;99.90
18141;DHT22;9196;49.194;12.526;2023-11-18T11:05:00;4.10;99.90
18141;DHT22;9196;49.194;12.526;2023-11-18T11:07:28;4.20;99.90
18141;DHT22;9196;49.194;12.526;2023-11-18T11:09:55;4.30;99.90
18141;DHT22;9196;49.194;12.526;2023-11-18T11:12:23;4.20;99.90
18141;DHT22;9196;49.194;12.526;2023-11-18T11:15:04;4.20;99.90
18141;DHT22;9196;49.194;12.526;2023-11-18T11:17:39;4.20;99.90
18141;DHT22;9196;49.194;12.526;2023-11-18T11:20:08;4.00;99.90
18141;DHT22;9196;49.194;12.526;2023-11-18T11:22:49;3.90;99.90
18141;DHT22;9196;49.194;12.526;2023-11-18T11:25:22;3.90;99.90
18141;DHT22;9196;49.194;12.526;2023-11-18T11:27:59;3.80;99.90
18141;DHT22;9196;49.194;12.526;2023-11-18T11:30:29;3.90;99.90
18141;DHT22;9196;49.194;12.526;2023-11-18T11:33:04;3.90;99.90
18141;DHT22;9196;49.194;12.526;2023-11-18T11:35:40;3.90;99.90
18141;DHT22;9196;49.194;12.526;2023-11-18T11:38:12;4.00;99.90
18141;DHT22;9196;49.194;12.526;2023-11-18T11:40:41;4.10;99.90
18141;DHT22;9196;49.194;12.526;2023-11-18T11:43:10;4.20;99.90
18141;DHT22;9196;49.194;12.526;2023-11-18T11:45:37;4.40;99.90
18141;DHT22;9196;49.194;12.526;2023-11-18T11:48:07;4.60;99.90
18141;DHT22;9196;49.194;12.526;2023-11-18T11:51:11;4.70;99.90
18141;DHT22;9196;49.194;12.526;2023-11-18T11:53:52;4.70;99.90
18141;DHT22;9196;49.194;12.526;2023-11-18T11:56:19;4.70;99.90
18141;DHT22;9196;49.194;12.526;2023-11-18T11:58:49;4.80;99.90
18141;DHT22;9196;49.194;12.526;2023-11-18T12:01:25;4.90;99.90
18141;DHT22;9196;49.194;12.526;2023-11-18T12:03:58;5.10;99.90
18141;DHT22;9196;49.194;12.526;2023-11-18T12:06:32;5.10;99.90
18141;DHT22;9196;49.194;12.526;2023-11-18T12:09:03;5.40;99.90
18141;DHT22;9196;49.194;12.526;2023-11-18T12:11:33;5.40;99.90
18141;DHT22;9196;49.194;12.526;2023-11-18T12:14:03;5.70;99.90
18141;DHT22;9196;49.194;12.526;2023-11-18T12:17:03;5.80;99.90
18141;DHT22;9196;49.194;12.526;2023-11-18T12:19:41;5.80;99.90
18141;DHT22;9196;49.194;12.526;2023-11-18T12:22:14;5.90;99.90
18141;DHT22;9196;49.194;12.526;2023-11-18T12:27:56;6.50;99.90
18141;DHT22;9196;49.194;12.526;2023-11-18T12:30:38;6.80;99.90
18141;DHT22;9196;49.194;12.526;2023-11-18T12:33:09;6.90;99.90
18141;DHT22;9196;49.194;12.526;2023-11-18T12:39:08;7.50;99.90
18141;DHT22;9196;49.194;12.526;2023-11-18T12:41:40;7.70;99.90
18141;DHT22;9196;49.194;12.526;2023-11-18T12:44:29;8.00;99.90
18141;DHT22;9196;49.194;12.526;2023-11-18T12:46:59;8.40;99.90
18141;DHT22;9196;49.194;12.526;2023-11-18T12:49:40;8.40;99.90
18141;DHT22;9196;49.194;12.526;2023-11-18T12:52:10;8.30;99.90
18141;DHT22;9196;49.194;12.526;2023-11-18T12:54:38;7.90;99.90
18141;DHT22;9196;49.194;12.526;2023-11-18T12:57:09;7.60;99.90
18141;DHT22;9196;49.194;12.526;2023-11-18T12:59:37;7.70;99.90
18141;DHT22;9196;49.194;12.526;2023-11-18T13:02:07;7.90;99.90
18141;DHT22;9196;49.194;12.526;2023-11-18T13:04:38;8.00;99.90
18141;DHT22;9196;49.194;12.526;2023-11-18T13:07:06;8.10;99.90
18141;DHT22;9196;49.194;12.526;2023-11-18T13:09:35;7.90;99.90
18141;DHT22;9196;49.194;12.526;2023-11-18T13:12:04;7.90;99.90
18141;DHT22;9196;49.194;12.526;2023-11-18T13:14:32;7.90;99.90
18141;DHT22;9196;49.194;12.526;2023-11-18T13:17:02;7.90;99.90
18141;DHT22;9196;49.194;12.526;2023-11-18T13:19:31;7.90;99.90
18141;DHT22;9196;49.194;12.526;2023-11-18T13:22:01;8.10;99.90
18141;DHT22;9196;49.194;12.526;2023-11-18T13:24:30;8.50;99.90
18141;DHT22;9196;49.194;12.526;2023-11-18T13:26:59;8.50;99.90
18141;DHT22;9196;49.194;12.526;2023-11-18T13:29:29;9.00;99.90
18141;DHT22;9196;49.194;12.526;2023-11-18T13:31:56;9.30;99.90
18141;DHT22;9196;49.194;12.526;2023-11-18T13:34:30;9.40;99.90
18141;DHT22;9196;49.194;12.526;2023-11-18T13:36:58;9.60;99.90
18141;DHT22;9196;49.194;12.526;2023-11-18T13:39:25;9.50;99.90
18141;DHT22;9196;49.194;12.526;2023-11-18T13:41:53;9.40;99.90
18141;DHT22;9196;49.194;12.526;2023-11-18T13:44:33;9.40;99.90
18141;DHT22;9196;49.194;12.526;2023-11-18T13:47:01;9.30;99.90
18141;DHT22;9196;49.194;12.526;2023-11-18T13:49:30;9.00;99.90
18141;DHT22;9196;49.194;12.526;2023-11-18T13:51:58;8.80;99.90
18141;DHT22;9196;49.194;12.526;2023-11-18T13:54:27;8.50;99.90
18141;DHT22;9196;49.194;12.526;2023-11-18T13:56:54;8.20;99.90
18141;DHT22;9196;49.194;12.526;2023-11-18T13:59:23;7.90;99.90
18141;DHT22;9196;49.194;12.526;2023-11-18T14:01:53;7.50;99.90
18141;DHT22;9196;49.194;12.526;2023-11-18T14:04:22;7.50;99.90
18141;DHT22;9196;49.194;12.526;2023-11-18T14:06:51;7.60;99.90
18141;DHT22;9196;49.194;12.526;2023-11-18T14:09:19;7.60;99.90
18141;DHT22;9196;49.194;12.526;2023-11-18T14:11:46;7.50;99.90
18141;DHT22;9196;49.194;12.526;2023-11-18T14:14:13;7.30;99.90
18141;DHT22;9196;49.194;12.526;2023-11-18T14:16:40;7.30;99.90
18141;DHT22;9196;49.194;12.526;2023-11-18T14:19:08;7.30;99.90
18141;DHT22;9196;49.194;12.526;2023-11-18T14:21:36;7.20;99.90
18141;DHT22;9196;49.194;12.526;2023-11-18T14:24:03;7.20;99.90
18141;DHT22;9196;49.194;12.526;2023-11-18T14:26:30;7.30;99.90
18141;DHT22;9196;49.194;12.526;2023-11-18T14:28:57;7.40;99.90
18141;DHT22;9196;49.194;12.526;2023-11-18T14:31:25;7.20;99.90
18141;DHT22;9196;49.194;12.526;2023-11-18T14:33:52;7.30;99.90
18141;DHT22;9196;49.194;12.526;2023-11-18T14:36:21;7.20;99.90
18141;DHT22;9196;49.194;12.526;2023-11-18T14:38:47;7.20;99.90
18141;DHT22;9196;49.194;12.526;2023-11-18T14:41:14;7.20;99.90
18141;DHT22;9196;49.194;12.526;2023-11-18T14:43:42;7.10;99.90
18141;DHT22;9196;49.194;12.526;2023-11-18T14:46:10;6.90;99.90
18141;DHT22;9196;49.194;12.526;2023-11-18T14:48:37;6.80;99.90
18141;DHT22;9196;49.194;12.526;2023-11-18T14:51:04;6.70;99.90
18141;DHT22;9196;49.194;12.526;2023-11-18T14:53:34;6.50;99.90
18141;DHT22;9196;49.194;12.526;2023-11-18T14:56:01;6.40;99.90
18141;DHT22;9196;49.194;12.526;2023-11-18T14:58:30;6.30;99.90
18141;DHT22;9196;49.194;12.526;2023-11-18T15:00:58;6.30;99.90
18141;DHT22;9196;49.194;12.526;2023-11-18T15:03:25;6.30;99.90
18141;DHT22;9196;49.194;12.526;2023-11-18T15:05:52;6.30;99.90
18141;DHT22;9196;49.194;12.526;2023-11-18T15:08:19;6.20;99.90
18141;DHT22;9196;49.194;12.526;2023-11-18T15:10:50;6.20;99.90
18141;DHT22;9196;49.194;12.526;2023-11-18T15:13:17;6.30;99.90
18141;DHT22;9196;49.194;12.526;2023-11-18T15:15:44;6.30;99.90
18141;DHT22;9196;49.194;12.526;2023-11-18T15:18:13;6.30;99.90
18141;DHT22;9196;49.194;12.526;2023-11-18T15:20:43;6.20;99.90
18141;DHT22;9196;49.194;12.526;2023-11-18T15:23:10;6.10;99.90
18141;DHT22;9196;49.194;12.526;2023-11-18T15:25:37;5.90;99.90
18141;DHT22;9196;49.194;12.526;2023-11-18T15:28:06;5.70;99.90
18141;DHT22;9196;49.194;12.526;2023-11-18T15:30:35;5.60;99.90
18141;DHT22;9196;49.194;12.526;2023-11-18T15:33:02;5.60;99.90
18141;DHT22;9196;49.194;12.526;2023-11-18T15:35:29;5.60;99.90
18141;DHT22;9196;49.194;12.526;2023-11-18T15:37:56;5.50;99.90
18141;DHT22;9196;49.194;12.526;2023-11-18T15:40:23;5.50;99.90
18141;DHT22;9196;49.194;12.526;2023-11-18T15:42:51;5.40;99.90
18141;DHT22;9196;49.194;12.526;2023-11-18T15:45:21;5.30;99.90
18141;DHT22;9196;49.194;12.526;2023-11-18T15:47:50;5.20;99.90
18141;DHT22;9196;49.194;12.526;2023-11-18T15:50:17;5.20;99.90
18141;DHT22;9196;49.194;12.526;2023-11-18T15:52:44;5.10;99.90
18141;DHT22;9196;49.194;12.526;2023-11-18T15:55:13;5.00;99.90
18141;DHT22;9196;49.194;12.526;2023-11-18T15:57:41;5.00;99.90
18141;DHT22;9196;49.194;12.526;2023-11-18T16:00:09;5.00;99.90
18141;DHT22;9196;49.194;12.526;2023-11-18T16:02:42;5.00;99.90